Farmington, NM

12:27 AM MST on February 13, 2016 (GMT -0700)
Mojave St & Butler Ave | | Change Station
CLOSE
Current Station
Personal Weather Station
Location: Farmington, NM
Elevation: 5413 ft
Nearby Weather Stations

Elev 5413 ft 36.74 °N, 108.20 °W | Updated 9 minutes ago

Clear
Clear
33.3 °F
Feels Like 33 °F
N
2.2
Wind Variable Wind from ESE

Today
High -- | Low -- °F
--% Chance of Precip.
Yesterday
High -- | Low -- °F
Precip. -- in
Pressure 30.34 in
Visibility 10.0 miles
Clouds Clear
Windchill 33 °F
Dew Point 31 °F
Humidity 91%
Rainfall 0.00 in
Snow Depth Not available.
7:03 AM 5:50 PM
Waxing Crescent, 28% visible
METAR KFMN 130653Z AUTO 07006KT 10SM CLR M01/M04 A3033 RMK AO2 SLP274 T10061039 401611044 TSNO
Pressure 30.34 in
Visibility 10.0 miles
Clouds Clear
Windchill 33 °F
Dew Point 31 °F
Humidity 91%
Rainfall 0.00 in
Snow Depth Not available.
7:03 AM 5:50 PM
Waxing Crescent, 28% visible
METAR KFMN 130653Z AUTO 07006KT 10SM CLR M01/M04 A3033 RMK AO2 SLP274 T10061039 401611044 TSNO

10-Day Weather Forecast

Almanac

Astronomy

Feb. 13, 2016 Rise Set
Actual Time
Civil Twilight
Nautical Twilight
Astronomical Twilight
Moon
Length of Visible Light
Length of Day
Tomorrow will be .
, % of the Moon is Illuminated

Today's Extremes

State Highs State Lows

Community

WunderPhotos

Upload Photos

1,892,526 photos uploaded!

WunderBlog® & News

Nearby

Air Quality

  Air Quality AQ Index Pollutant
Not available.

Snow Depth

Station Depth Elevation

Earthquake Activity

City Distance Mag. Time & Date
Minimum magnitude displayed is 2.5.

Coastal Water Temperatures

Place Temperature

Stations

Nearby Weather Stations

Station Location Temp. Windchill Dew Point Humidity Wind Precip. Elev Updated Type
                   

Watches & Warnings

There are currently no watches in effect.